Time;durP1;ratioP1;P1;durP2;ratioP2;P2;SDS_P1;SDS_P2;PMS_P1;PMS_P2;Temp;Humidity;BMP_temperature;BMP_pressure;BME280_temperature;BME280_humidity;BME280_pressure;Samples;Min_cycle;Max_cycle;Signal;HPM_P1;HPM_P2
2023/07/27 00:00:10;;;;;;;7.20;4.35;;;;;;;17.97;70.40;100770.56;3536337;40;20161;-64
2023/07/27 00:02:36;;;;;;;7.38;4.15;;;;;;;17.46;71.92;100692.84;3540426;40;20068;-65
2023/07/27 00:05:03;;;;;;;5.95;4.00;;;;;;;17.58;71.92;100727.06;3537582;40;20548;-65
2023/07/27 00:07:29;;;;;;;6.13;4.40;;;;;;;17.76;72.95;100778.84;3540588;40;20302;-65
2023/07/27 00:09:55;;;;;;;5.88;4.32;;;;;;;17.73;75.16;100760.97;3538981;40;20090;-64
2023/07/27 00:12:21;;;;;;;5.65;4.35;;;;;;;17.69;73.94;100759.53;3537175;40;20050;-64
2023/07/27 00:14:51;;;;;;;4.45;4.05;;;;;;;16.80;74.23;100614.72;3538157;40;20053;-65
2023/07/27 00:17:17;;;;;;;6.18;4.30;;;;;;;17.22;73.89;100694.13;3536214;40;20061;-64
2023/07/27 00:19:43;;;;;;;6.85;4.43;;;;;;;17.60;74.25;100757.66;3538764;40;20054;-64
2023/07/27 00:22:09;;;;;;;6.07;4.13;;;;;;;16.98;75.17;100648.34;3534159;40;20801;-65
2023/07/27 00:24:35;;;;;;;6.88;4.53;;;;;;;17.53;74.77;100745.63;3538035;40;20058;-64
2023/07/27 00:27:01;;;;;;;6.57;4.15;;;;;;;17.45;74.92;100740.91;3538106;40;20404;-64
2023/07/27 00:29:27;;;;;;;5.82;4.15;;;;;;;17.40;76.55;100738.59;3537442;40;20077;-64
2023/07/27 00:31:52;;;;;;;5.20;3.88;;;;;;;17.42;77.32;100749.34;3538479;40;20077;-64
2023/07/27 00:34:18;;;;;;;7.32;4.38;;;;;;;17.29;77.67;100722.44;3537758;40;20061;-64
2023/07/27 00:36:44;;;;;;;4.85;4.10;;;;;;;17.41;78.60;100742.19;3534589;40;20073;-64
2023/07/27 00:39:11;;;;;;;5.97;4.35;;;;;;;17.43;77.71;100742.06;3539005;40;20800;-64
2023/07/27 00:41:41;;;;;;;6.78;4.32;;;;;;;17.40;77.78;100727.75;3538549;40;20061;-64
2023/07/27 00:44:07;;;;;;;5.68;4.07;;;;;;;17.37;78.96;100724.44;3538506;40;20058;-64
2023/07/27 00:46:35;;;;;;;5.38;4.53;;;;;;;17.30;79.18;100716.00;3537348;40;20062;-65
2023/07/27 00:49:05;;;;;;;6.75;4.93;;;;;;;17.30;79.67;100718.72;3535393;40;20073;-65
2023/07/27 00:51:36;;;;;;;7.35;4.47;;;;;;;17.30;79.80;100718.72;3536260;40;20066;-64
2023/07/27 00:54:07;;;;;;;6.22;4.50;;;;;;;17.25;80.17;100706.56;3536555;40;20066;-65
2023/07/27 00:56:37;;;;;;;5.38;4.47;;;;;;;17.28;80.50;100712.56;3536734;40;20057;-65
2023/07/27 00:59:04;;;;;;;7.15;5.07;;;;;;;17.23;79.30;100700.44;3535653;40;20274;-65
2023/07/27 01:01:30;;;;;;;6.43;4.75;;;;;;;17.11;80.12;100686.09;3536820;40;20066;-64
2023/07/27 01:03:57;;;;;;;8.93;5.13;;;;;;;17.08;80.98;100680.94;3537307;40;20058;-64
2023/07/27 01:06:24;;;;;;;5.95;5.03;;;;;;;17.11;79.66;100689.66;3537550;40;20195;-64
2023/07/27 01:08:52;;;;;;;6.57;5.32;;;;;;;17.02;81.55;100676.06;3535827;40;20398;-65
2023/07/27 01:12:02;;;;;;;5.78;5.10;;;;;;;16.98;80.23;100674.66;3535736;40;20063;-64
2023/07/27 01:14:38;;;;;;;7.20;5.57;;;;;;;16.92;81.94;100676.91;3536381;40;20129;-65
2023/07/27 01:17:19;;;;;;;6.13;4.90;;;;;;;16.90;82.36;100670.78;3537399;40;20101;-64
2023/07/27 01:20:12;;;;;;;8.80;5.65;;;;;;;16.87;82.88;100679.22;3534358;40;20054;-65
2023/07/27 01:23:45;;;;;;;9.32;5.82;;;;;;;16.81;83.88;100671.63;3534871;40;20379;-64
2023/07/27 01:26:33;;;;;;;7.60;6.35;;;;;;;16.76;84.33;100671.16;3513501;40;20059;-65
2023/07/27 01:29:13;;;;;;;6.95;5.30;;;;;;;16.76;84.56;100660.31;3514765;40;20066;-64
2023/07/27 01:31:46;;;;;;;9.70;6.05;;;;;;;16.60;84.82;100635.50;3533318;40;20436;-64
2023/07/27 01:34:26;;;;;;;8.32;6.28;;;;;;;16.65;86.17;100650.41;3539109;40;20530;-64
2023/07/27 01:37:02;;;;;;;10.48;6.28;;;;;;;16.64;85.62;100650.50;3538566;40;20046;-63
2023/07/27 01:39:35;;;;;;;7.25;6.07;;;;;;;16.59;86.72;100650.94;3541616;40;20050;-64
2023/07/27 01:42:03;;;;;;;11.13;6.75;;;;;;;16.52;87.04;100635.34;3537097;40;20054;-62
2023/07/27 01:44:33;;;;;;;8.18;6.45;;;;;;;16.50;88.07;100632.78;3535621;40;20167;-65
2023/07/27 01:47:01;;;;;;;9.80;6.38;;;;;;;16.44;87.71;100634.19;3536228;40;20050;-65
2023/07/27 01:49:31;;;;;;;10.10;6.65;;;;;;;16.48;88.56;100632.03;3538996;40;20066;-65
2023/07/27 01:51:58;;;;;;;11.77;6.50;;;;;;;15.86;87.89;100525.50;3537053;40;20065;-64
2023/07/27 01:54:27;;;;;;;8.35;6.50;;;;;;;16.48;88.67;100624.75;3535621;40;20066;-64
2023/07/27 01:56:55;;;;;;;7.72;6.70;;;;;;;16.40;88.32;100605.63;3536347;40;20046;-63
2023/07/27 01:59:24;;;;;;;10.10;6.18;;;;;;;16.51;88.72;100609.22;3535669;40;20050;-65
2023/07/27 02:01:51;;;;;;;7.68;6.55;;;;;;;16.48;89.35;100621.19;3536327;40;20329;-64
2023/07/27 02:04:17;;;;;;;8.52;6.35;;;;;;;15.85;89.09;100507.50;3538991;40;20063;-64
2023/07/27 02:06:49;;;;;;;9.82;6.90;;;;;;;16.46;89.09;100590.66;3538903;40;20064;-64
2023/07/27 02:09:14;;;;;;;11.50;7.15;;;;;;;16.41;90.51;100579.34;3538974;40;20088;-64
2023/07/27 02:11:47;;;;;;;7.95;7.00;;;;;;;16.36;89.57;100576.16;3538081;40;20063;-65
2023/07/27 02:14:40;;;;;;;9.20;6.80;;;;;;;16.46;90.32;100582.50;3535878;40;20102;-64
2023/07/27 02:17:20;;;;;;;8.98;6.93;;;;;;;16.44;90.05;100579.91;3534323;40;20074;-64
2023/07/27 02:19:57;;;;;;;7.88;6.53;;;;;;;15.43;89.08;100410.03;3536466;40;20062;-64
2023/07/27 02:22:25;;;;;;;8.52;7.05;;;;;;;16.36;90.73;100559.88;3539208;40;20057;-64
2023/07/27 02:24:51;;;;;;;9.88;6.90;;;;;;;16.32;91.74;100545.75;3538101;40;20049;-64
2023/07/27 02:27:17;;;;;;;9.80;7.28;;;;;;;16.41;92.02;100563.91;3533658;40;20126;-63
2023/07/27 02:29:43;;;;;;;10.40;7.40;;;;;;;16.35;92.07;100544.63;3533320;40;20396;-64
2023/07/27 02:32:08;;;;;;;11.32;7.65;;;;;;;16.44;91.73;100547.34;3533596;40;20386;-64
2023/07/27 02:34:34;;;;;;;8.05;7.15;;;;;;;16.42;91.45;100549.34;3537215;40;20665;-64
2023/07/27 02:36:59;;;;;;;8.88;7.47;;;;;;;16.45;92.23;100537.34;3536643;40;20090;-65
2023/07/27 02:39:25;;;;;;;10.20;7.10;;;;;;;16.47;91.86;100538.94;3537641;40;20054;-64
2023/07/27 02:41:51;;;;;;;10.88;8.00;;;;;;;16.44;91.49;100530.22;3540651;40;20050;-64
2023/07/27 02:44:16;;;;;;;10.43;7.40;;;;;;;16.38;91.72;100523.50;3536389;40;20059;-65
2023/07/27 02:46:42;;;;;;;11.60;8.13;;;;;;;16.36;91.56;100517.34;3535214;40;20069;-65
2023/07/27 02:49:07;;;;;;;10.10;7.75;;;;;;;16.36;91.83;100517.34;3534163;40;20070;-64
2023/07/27 02:51:33;;;;;;;10.13;7.57;;;;;;;16.31;91.36;100518.78;3540494;40;20398;-64
2023/07/27 02:53:59;;;;;;;9.57;7.25;;;;;;;16.30;92.43;100508.91;3538240;40;20281;-65
2023/07/27 02:56:24;;;;;;;8.93;7.13;;;;;;;16.29;92.69;100509.91;3537784;40;20061;-65
2023/07/27 02:58:50;;;;;;;12.02;7.55;;;;;;;16.28;92.47;100511.78;3536701;40;20070;-65
2023/07/27 03:01:16;;;;;;;10.20;6.78;;;;;;;16.27;92.59;100501.94;3542456;40;20065;-64
2023/07/27 03:03:41;;;;;;;10.30;7.53;;;;;;;16.25;92.89;100512.06;3538509;40;20404;-66
2023/07/27 03:06:07;;;;;;;12.93;7.95;;;;;;;16.23;93.05;100500.47;3538407;40;20347;-66
2023/07/27 03:08:33;;;;;;;10.45;7.30;;;;;;;16.18;92.54;100494.63;3537217;40;20066;-66
2023/07/27 03:11:04;;;;;;;9.77;7.13;;;;;;;16.18;93.46;100490.06;3538930;40;20106;-65
2023/07/27 03:13:32;;;;;;;10.27;8.00;;;;;;;16.16;93.79;100483.06;3544749;40;20340;-64
2023/07/27 03:15:59;;;;;;;9.68;6.78;;;;;;;16.06;94.43;100463.19;3537977;40;20056;-65
2023/07/27 03:18:27;;;;;;;10.10;7.35;;;;;;;16.15;94.66;100486.78;3538800;40;20042;-65
2023/07/27 03:20:53;;;;;;;8.05;6.93;;;;;;;16.12;94.54;100459.94;3535967;40;20065;-64
2023/07/27 03:23:18;;;;;;;9.80;7.03;;;;;;;16.17;95.15;100463.06;3536917;40;20081;-65
2023/07/27 03:25:44;;;;;;;10.43;6.68;;;;;;;16.17;95.32;100457.63;3537739;40;20325;-65
2023/07/27 03:28:10;;;;;;;8.73;7.00;;;;;;;16.21;95.88;100450.97;3536619;40;20169;-65
2023/07/27 03:30:40;;;;;;;10.02;8.23;;;;;;;15.55;95.62;100341.22;3541655;40;20054;-65
2023/07/27 03:33:07;;;;;;;11.23;9.45;;;;;;;16.02;95.57;100411.09;3536742;40;20058;-65
2023/07/27 03:35:34;;;;;;;10.88;7.80;;;;;;;16.16;95.77;100431.53;3537739;40;20097;-65
2023/07/27 03:38:00;;;;;;;11.98;8.02;;;;;;;16.17;96.03;100419.66;3535559;40;20065;-66
2023/07/27 03:40:26;;;;;;;11.25;7.30;;;;;;;16.05;96.90;100399.09;3536451;40;20118;-65
2023/07/27 03:42:51;;;;;;;10.80;7.28;;;;;;;16.14;96.92;100395.53;3539388;40;20058;-65
2023/07/27 03:45:17;;;;;;;10.32;7.10;;;;;;;16.19;96.85;100396.84;3535101;40;20360;-65
2023/07/27 03:47:44;;;;;;;10.13;7.00;;;;;;;15.65;96.87;100294.31;3537718;40;20061;-65
2023/07/27 03:50:11;;;;;;;8.50;6.82;;;;;;;16.16;96.14;100374.56;3538377;40;20425;-64
2023/07/27 03:52:38;;;;;;;8.43;6.35;;;;;;;16.21;97.11;100383.16;3537398;40;20057;-65
2023/07/27 03:55:05;;;;;;;8.50;7.03;;;;;;;16.23;96.67;100373.00;3538189;40;20144;-64
2023/07/27 03:57:32;;;;;;;8.82;6.65;;;;;;;16.25;97.22;100379.16;3534277;40;20172;-65
2023/07/27 04:00:00;;;;;;;7.07;6.13;;;;;;;15.80;96.65;100302.94;3537168;40;22388;-64
2023/07/27 04:02:27;;;;;;;7.97;5.97;;;;;;;16.21;97.13;100375.03;3538472;40;20128;-64
2023/07/27 04:04:53;;;;;;;6.35;5.50;;;;;;;16.20;96.67;100386.84;3541916;40;20094;-65
2023/07/27 04:07:20;;;;;;;7.18;6.10;;;;;;;15.76;96.47;100305.03;3534339;40;20381;-65
2023/07/27 04:09:45;;;;;;;6.70;5.50;;;;;;;16.15;97.18;100378.31;3537976;40;20367;-64
2023/07/27 04:12:11;;;;;;;5.53;4.75;;;;;;;16.11;97.49;100376.84;3539387;40;20132;-64
2023/07/27 04:14:38;;;;;;;7.35;5.03;;;;;;;16.12;96.96;100375.88;3538491;40;20137;-64
2023/07/27 04:17:04;;;;;;;7.38;4.82;;;;;;;16.11;98.35;100374.13;3538771;40;20154;-64
2023/07/27 04:19:31;;;;;;;5.70;5.10;;;;;;;16.14;98.20;100371.13;3538187;40;20058;-64
2023/07/27 04:21:57;;;;;;;5.72;4.85;;;;;;;16.11;97.58;100360.56;3540006;40;20317;-65
2023/07/27 04:24:22;;;;;;;4.75;4.10;;;;;;;16.08;98.34;100358.16;3536228;40;20122;-64
2023/07/27 04:26:48;;;;;;;6.00;4.28;;;;;;;15.12;97.61;100194.44;3538261;40;20077;-64
2023/07/27 04:29:13;;;;;;;5.13;4.00;;;;;;;15.91;97.87;100314.47;3536413;40;20054;-64
2023/07/27 04:31:39;;;;;;;5.05;4.50;;;;;;;16.05;97.54;100344.88;3537848;40;20058;-65
2023/07/27 04:34:05;;;;;;;4.50;4.10;;;;;;;16.04;97.76;100338.59;3539587;40;20110;-65
2023/07/27 04:36:31;;;;;;;5.43;3.72;;;;;;;16.04;98.62;100337.75;3539056;40;20068;-64
2023/07/27 04:38:56;;;;;;;4.07;3.75;;;;;;;15.99;98.62;100325.47;3535927;40;20416;-64
2023/07/27 04:41:23;;;;;;;4.40;3.60;;;;;;;16.04;98.77;100344.03;3539104;40;20058;-63
2023/07/27 04:43:49;;;;;;;4.28;3.83;;;;;;;15.67;98.60;100281.53;3540073;40;20054;-64
2023/07/27 04:46:14;;;;;;;4.95;4.10;;;;;;;16.02;98.69;100333.34;3539150;40;20133;-63
2023/07/27 04:48:40;;;;;;;5.05;3.88;;;;;;;15.44;99.55;100222.13;3537418;40;20468;-64
2023/07/27 04:51:06;;;;;;;6.10;4.22;;;;;;;15.99;99.16;100325.47;3536813;40;20073;-64
2023/07/27 04:53:31;;;;;;;4.20;3.85;;;;;;;16.02;99.48;100319.78;3538239;40;20061;-64
2023/07/27 04:55:57;;;;;;;4.80;3.80;;;;;;;15.45;99.79;100217.59;3535378;40;20129;-64
2023/07/27 04:58:23;;;;;;;4.90;4.40;;;;;;;16.02;99.16;100314.34;3534199;40;20058;-64
2023/07/27 05:00:55;;;;;;;5.32;4.28;;;;;;;16.02;100.00;100317.06;3535786;40;20069;-64
2023/07/27 05:03:21;;;;;;;5.50;3.87;;;;;;;16.06;100.00;100316.78;3538493;40;20362;-63
2023/07/27 05:05:47;;;;;;;8.00;4.22;;;;;;;15.99;100.00;100298.38;3538754;40;20046;-64
2023/07/27 05:08:13;;;;;;;4.35;3.95;;;;;;;16.10;100.00;100316.34;3538024;40;20110;-64
2023/07/27 05:10:40;;;;;;;7.10;4.03;;;;;;;16.07;100.00;100303.06;3534102;40;20370;-64
2023/07/27 05:13:06;;;;;;;4.13;3.70;;;;;;;16.18;100.00;100300.22;3534071;40;20414;-64
2023/07/27 05:15:32;;;;;;;4.53;4.13;;;;;;;16.13;100.00;100302.50;3536537;40;20090;-64
2023/07/27 05:17:57;;;;;;;4.53;4.00;;;;;;;16.13;100.00;100286.22;3536528;40;20068;-64
2023/07/27 05:20:23;;;;;;;5.65;4.15;;;;;;;16.14;100.00;100284.38;3537993;40;20054;-63
2023/07/27 05:22:49;;;;;;;5.10;3.90;;;;;;;16.18;100.00;100289.38;3536759;40;20069;-63
2023/07/27 05:25:15;;;;;;;7.00;4.30;;;;;;;16.23;100.00;100278.06;3538547;40;20737;-63
2023/07/27 05:27:40;;;;;;;4.32;3.72;;;;;;;16.20;100.00;100264.81;3536443;40;20065;-64
2023/07/27 05:30:07;;;;;;;7.00;3.70;;;;;;;16.28;100.00;100281.22;3535542;40;20073;-64
2023/07/27 05:32:32;;;;;;;4.68;3.70;;;;;;;16.30;100.00;100268.38;3534670;40;20434;-64
2023/07/27 05:34:58;;;;;;;3.90;3.45;;;;;;;16.32;100.00;100271.78;3535746;40;20073;-63
2023/07/27 05:37:24;;;;;;;5.00;3.50;;;;;;;16.35;100.00;100260.66;3537022;40;20106;-63
2023/07/27 05:39:49;;;;;;;3.75;3.45;;;;;;;16.28;100.00;100255.97;3535770;40;20074;-66
2023/07/27 05:42:15;;;;;;;4.63;3.50;;;;;;;16.36;100.00;100262.34;3536053;40;20069;-64
2023/07/27 05:44:41;;;;;;;4.65;4.22;;;;;;;16.39;100.00;100267.47;3534206;40;20061;-64
2023/07/27 05:47:06;;;;;;;8.88;6.20;;;;;;;16.12;100.00;100210.47;3534932;40;20073;-64
2023/07/27 05:49:32;;;;;;;3.75;3.40;;;;;;;16.41;100.00;100257.34;3534262;40;20377;-64
2023/07/27 05:51:58;;;;;;;3.58;3.03;;;;;;;15.93;100.00;100173.41;3531976;40;20074;-64
2023/07/27 05:54:23;;;;;;;4.35;3.20;;;;;;;16.45;100.00;100250.63;3534159;40;20058;-63
2023/07/27 05:56:49;;;;;;;3.80;3.50;;;;;;;16.52;100.00;100253.59;3536833;40;20058;-65
2023/07/27 05:59:15;;;;;;;3.60;3.28;;;;;;;16.55;100.00;100253.31;3538266;40;20054;-65
2023/07/27 06:01:40;;;;;;;3.28;2.97;;;;;;;16.57;100.00;100254.03;3536598;40;20386;-65
2023/07/27 06:04:06;;;;;;;3.55;3.25;;;;;;;16.52;100.00;100228.31;3537745;40;20069;-64
2023/07/27 06:06:32;;;;;;;4.28;3.15;;;;;;;16.23;100.00;100186.72;3538754;40;20066;-64
2023/07/27 06:08:58;;;;;;;3.35;3.10;;;;;;;16.67;100.00;100259.41;3536405;40;20120;-62
2023/07/27 06:11:24;;;;;;;3.35;3.05;;;;;;;16.70;100.00;100242.84;3537251;40;20069;-62
2023/07/27 06:13:49;;;;;;;3.28;2.97;;;;;;;16.78;100.00;100245.72;3536913;40;20057;-64
2023/07/27 06:16:16;;;;;;;3.47;2.95;;;;;;;16.81;100.00;100244.53;3533114;40;20362;-64
2023/07/27 06:18:42;;;;;;;2.88;2.58;;;;;;;16.77;100.00;100224.97;3533081;40;20043;-64
2023/07/27 06:21:07;;;;;;;2.80;2.60;;;;;;;16.92;100.00;100242.47;3535158;40;20305;-64
2023/07/27 06:23:33;;;;;;;2.95;2.70;;;;;;;16.99;100.00;100231.03;3533768;40;20059;-63
2023/07/27 06:25:59;;;;;;;2.75;2.55;;;;;;;16.97;100.00;100228.47;3534619;40;20066;-63
2023/07/27 06:28:25;;;;;;;2.90;2.60;;;;;;;16.98;100.00;100229.31;3535359;40;20102;-64
2023/07/27 06:30:51;;;;;;;2.72;2.53;;;;;;;16.55;100.00;100144.78;3535872;40;20101;-64
2023/07/27 06:33:17;;;;;;;2.75;2.53;;;;;;;17.11;100.00;100232.53;3533769;40;20051;-64
2023/07/27 06:35:43;;;;;;;2.47;2.25;;;;;;;17.14;100.00;100229.50;3538779;40;20054;-64
2023/07/27 06:38:09;;;;;;;2.70;2.50;;;;;;;17.18;100.00;100226.34;3532778;40;20070;-63
2023/07/27 06:40:34;;;;;;;2.97;2.70;;;;;;;17.15;100.00;100214.91;3533696;40;20070;-64
2023/07/27 06:43:00;;;;;;;2.85;2.25;;;;;;;17.24;100.00;100222.16;3538488;40;20058;-64
2023/07/27 06:45:26;;;;;;;2.92;2.63;;;;;;;17.20;100.00;100226.19;3533668;40;20058;-64
2023/07/27 06:47:51;;;;;;;2.35;2.15;;;;;;;17.27;100.00;100219.13;3535200;40;20059;-64
2023/07/27 06:50:17;;;;;;;2.38;2.28;;;;;;;17.24;100.00;100213.16;3537847;40;20061;-62
2023/07/27 06:52:43;;;;;;;2.50;2.30;;;;;;;17.28;100.00;100226.25;3535023;40;20067;-64
2023/07/27 06:55:10;;;;;;;2.58;2.38;;;;;;;17.35;100.00;100221.94;3533526;40;20125;-65
2023/07/27 06:57:36;;;;;;;3.13;2.60;;;;;;;17.38;100.00;100224.38;3536741;40;20073;-64
2023/07/27 07:00:02;;;;;;;2.35;2.20;;;;;;;17.37;100.00;100217.19;3536279;40;20047;-64
2023/07/27 07:02:28;;;;;;;2.58;2.40;;;;;;;17.31;100.00;100206.09;3532698;40;20051;-64
2023/07/27 07:04:54;;;;;;;2.58;2.38;;;;;;;16.92;100.00;100139.31;3536305;40;20050;-64
2023/07/27 07:07:20;;;;;;;2.72;2.53;;;;;;;17.41;100.00;100228.63;3534595;40;20128;-64
2023/07/27 07:09:46;;;;;;;2.85;2.65;;;;;;;17.43;100.00;100221.16;3535830;40;20062;-64
2023/07/27 07:12:12;;;;;;;2.50;2.35;;;;;;;16.87;100.00;100127.19;3531846;40;20124;-66
2023/07/27 07:14:37;;;;;;;2.38;2.28;;;;;;;17.46;100.00;100228.16;3535325;40;20066;-65
2023/07/27 07:17:03;;;;;;;2.70;2.50;;;;;;;17.43;100.00;100217.59;3532186;40;20527;-65
2023/07/27 07:19:29;;;;;;;2.65;2.45;;;;;;;17.47;100.00;100219.84;3535973;40;20066;-65
2023/07/27 07:21:54;;;;;;;2.83;2.50;;;;;;;17.50;100.00;100213.25;3536685;40;20423;-66
2023/07/27 07:24:20;;;;;;;2.60;2.42;;;;;;;17.56;100.00;100223.50;3532785;40;20062;-65
2023/07/27 07:26:46;;;;;;;2.58;2.33;;;;;;;17.56;100.00;100224.34;3533712;40;20061;-65
2023/07/27 07:29:12;;;;;;;2.75;2.55;;;;;;;17.61;100.00;100226.63;3538856;40;20058;-65
2023/07/27 07:31:38;;;;;;;2.47;2.28;;;;;;;17.58;100.00;100219.63;3533189;40;20401;-63
2023/07/27 07:34:04;;;;;;;2.40;2.20;;;;;;;17.64;100.00;100220.88;3534486;40;20105;-65
2023/07/27 07:36:29;;;;;;;2.58;2.40;;;;;;;17.73;100.00;100219.94;3531711;40;20054;-64
2023/07/27 07:38:55;;;;;;;2.60;2.40;;;;;;;17.79;100.00;100211.22;3536500;40;20433;-64
2023/07/27 07:41:22;;;;;;;2.63;2.42;;;;;;;17.81;100.00;100194.72;3535679;40;20061;-64
2023/07/27 07:43:48;;;;;;;3.05;2.47;;;;;;;17.93;100.00;100204.34;3539289;40;20102;-64
2023/07/27 07:46:14;;;;;;;2.42;2.05;;;;;;;17.98;100.00;100212.00;3534694;40;20050;-64
2023/07/27 07:48:41;;;;;;;2.50;2.30;;;;;;;18.01;100.00;100220.72;3536671;40;20302;-63
2023/07/27 07:51:14;;;;;;;4.05;2.17;;;;;;;18.01;100.00;100217.97;3540585;40;20049;-63
2023/07/27 07:53:42;;;;;;;2.33;2.13;;;;;;;18.04;100.00;100205.94;3536341;40;20615;-64
2023/07/27 07:56:15;;;;;;;2.80;2.60;;;;;;;18.04;100.00;100208.66;3536157;40;20061;-64
2023/07/27 07:58:42;;;;;;;2.60;2.40;;;;;;;18.07;100.00;100211.06;3544794;40;20058;-64
2023/07/27 08:01:08;;;;;;;2.35;2.15;;;;;;;18.07;100.00;100211.06;3535181;40;20166;-64
2023/07/27 08:03:34;;;;;;;2.65;2.10;;;;;;;18.08;100.00;100210.06;3539420;40;20420;-64
2023/07/27 08:06:00;;;;;;;2.30;2.10;;;;;;;18.09;100.00;100209.06;3538648;40;20069;-64
2023/07/27 08:08:25;;;;;;;2.20;2.00;;;;;;;17.59;100.00;100133.50;3538997;40;20062;-64
2023/07/27 08:10:51;;;;;;;2.65;2.03;;;;;;;17.58;100.00;100123.66;3535572;40;20066;-64
2023/07/27 08:13:17;;;;;;;2.30;2.10;;;;;;;18.04;100.00;100195.06;3533353;40;20065;-64
2023/07/27 08:15:56;;;;;;;2.55;2.35;;;;;;;18.09;100.00;100203.63;3532711;40;20382;-64
2023/07/27 08:18:22;;;;;;;7.18;6.53;;;;;;;18.08;100.00;100201.91;3535288;40;20061;-64
2023/07/27 08:21:03;;;;;;;1.90;1.80;;;;;;;18.11;100.00;100201.59;3534971;40;20749;-63
2023/07/27 08:23:29;;;;;;;2.10;2.00;;;;;;;18.17;100.00;100194.66;3536464;40;20057;-64
2023/07/27 08:25:56;;;;;;;2.42;2.33;;;;;;;18.25;100.00;100202.88;3536519;40;20050;-64
2023/07/27 08:28:22;;;;;;;3.08;2.88;;;;;;;17.76;100.00;100116.34;3532309;40;20073;-64
2023/07/27 08:30:49;;;;;;;2.90;2.70;;;;;;;17.82;100.00;100126.59;3534825;40;20054;-63
2023/07/27 08:33:15;;;;;;;2.03;1.63;;;;;;;18.24;100.00;100182.97;3536811;40;20049;-63
2023/07/27 08:35:41;;;;;;;2.50;1.65;;;;;;;18.35;100.00;100202.75;3535200;40;20100;-64
2023/07/27 08:38:07;;;;;;;1.95;1.85;;;;;;;18.37;100.00;100198.03;3537965;40;20640;-64
2023/07/27 08:40:33;;;;;;;3.22;3.03;;;;;;;18.39;100.00;100198.69;3532602;40;20070;-65
2023/07/27 08:42:59;;;;;;;4.47;4.18;;;;;;;18.40;100.00;100195.00;3536622;40;20289;-65
2023/07/27 08:45:26;;;;;;;2.00;1.90;;;;;;;18.38;100.00;100199.72;3537984;40;20057;-64
2023/07/27 08:47:55;;;;;;;1.90;1.80;;;;;;;18.37;100.00;100198.88;3541045;40;20086;-65
2023/07/27 08:50:22;;;;;;;1.88;1.70;;;;;;;18.36;100.00;100193.56;3536722;40;20061;-64
2023/07/27 08:52:49;;;;;;;1.90;1.80;;;;;;;18.38;100.00;100199.72;3537409;40;20043;-64
2023/07/27 08:55:15;;;;;;;1.90;1.80;;;;;;;18.38;100.00;100197.84;3534845;40;20050;-63
2023/07/27 08:57:41;;;;;;;1.27;1.17;;;;;;;18.30;100.00;100187.78;3539932;40;20058;-64
2023/07/27 09:00:12;;;;;;;1.30;1.27;;;;;;;18.39;100.00;100196.81;3533395;40;20054;-64
2023/07/27 09:02:41;;;;;;;1.67;1.60;;;;;;;18.26;100.00;100183.66;3536651;40;20095;-64
2023/07/27 09:05:09;;;;;;;1.45;1.42;;;;;;;18.44;100.00;100201.81;3537907;40;20062;-64
2023/07/27 09:07:35;;;;;;;1.20;1.20;;;;;;;17.96;100.00;100116.16;3535582;40;20066;-64
2023/07/27 09:10:10;;;;;;;1.58;1.48;;;;;;;18.49;100.00;100204.88;3533125;40;20418;-63
2023/07/27 09:12:36;;;;;;;1.52;1.42;;;;;;;18.53;100.00;100196.25;3536253;40;20064;-64
2023/07/27 09:15:15;;;;;;;3.15;1.70;;;;;;;18.61;100.00;100192.69;3538512;40;20054;-64
2023/07/27 09:17:42;;;;;;;1.65;1.55;;;;;;;18.64;100.00;100189.66;3533345;40;20124;-64
2023/07/27 09:20:12;;;;;;;1.90;1.80;;;;;;;18.70;100.00;100197.16;3535598;40;20050;-63
2023/07/27 09:22:38;;;;;;;1.85;1.75;;;;;;;18.66;100.00;100194.94;3535805;40;20399;-63
2023/07/27 09:25:06;;;;;;;1.75;1.65;;;;;;;18.68;100.00;100193.78;3536498;40;20060;-64
2023/07/27 09:27:43;;;;;;;2.15;1.95;;;;;;;18.68;100.00;100201.06;3533555;40;20064;-63
2023/07/27 09:30:12;;;;;;;1.60;1.50;;;;;;;18.70;100.00;100197.16;3539044;40;20056;-63
2023/07/27 09:32:37;;;;;;;1.90;1.75;;;;;;;18.71;100.00;100181.69;3533528;40;20054;-64
2023/07/27 09:35:04;;;;;;;2.45;1.50;;;;;;;18.74;100.00;100193.16;3537327;40;20065;-63
2023/07/27 09:37:30;;;;;;;1.75;1.63;;;;;;;18.28;100.00;100113.63;3535785;40;20102;-63
2023/07/27 09:40:16;;;;;;;2.13;1.75;;;;;;;18.87;100.00;100186.38;3536857;40;20046;-63
2023/07/27 09:42:44;;;;;;;1.60;1.50;;;;;;;18.90;100.00;100186.06;3539339;40;20361;-63
2023/07/27 09:45:13;;;;;;;2.30;1.67;;;;;;;18.88;100.00;100199.00;3540793;40;20046;-63
2023/07/27 09:47:39;;;;;;;2.63;1.85;;;;;;;18.89;100.00;100190.66;3534896;40;20417;-64
2023/07/27 09:50:07;;;;;;;1.85;1.65;;;;;;;18.54;100.00;100120.88;3537696;40;20057;-63
2023/07/27 09:52:36;;;;;;;1.35;1.33;;;;;;;18.91;100.00;100182.34;3535880;40;20061;-63
2023/07/27 09:55:03;;;;;;;1.63;1.50;;;;;;;19.01;100.00;100180.31;3534323;40;20068;-64
2023/07/27 09:57:29;;;;;;;1.70;1.60;;;;;;;19.09;100.00;100183.03;3536845;40;20057;-64
2023/07/27 09:59:55;;;;;;;1.77;1.50;;;;;;;19.11;100.00;100194.66;3540528;40;20096;-64
2023/07/27 10:02:22;;;;;;;1.90;1.80;;;;;;;18.62;100.00;100115.47;3536878;40;20104;-64
2023/07/27 10:04:50;;;;;;;1.52;1.50;;;;;;;19.02;100.00;100184.75;3536251;40;20035;-63
2023/07/27 10:07:20;;;;;;;1.73;1.60;;;;;;;19.01;100.00;100191.22;3534501;40;20066;-64
2023/07/27 10:10:46;;;;;;;1.60;1.50;;;;;;;19.00;100.00;100189.53;3538729;40;20394;-64
2023/07/27 10:13:24;;;;;;;2.97;2.78;;;;;;;18.96;100.00;100190.84;3538559;40;20054;-63
2023/07/27 10:15:53;;;;;;;1.58;1.45;;;;;;;18.98;100.00;100186.09;3536991;40;20054;-64
2023/07/27 10:18:27;;;;;;;1.23;1.20;;;;;;;18.98;100.00;100188.81;3535379;40;20053;-64
2023/07/27 10:21:22;;;;;;;1.42;1.08;;;;;;;19.01;100.00;100189.34;3534758;40;20098;-64
2023/07/27 10:24:03;;;;;;;1.20;1.10;;;;;;;18.59;100.00;100118.53;3535098;40;20050;-65
2023/07/27 10:27:04;;;;;;;1.05;1.05;;;;;;;19.07;100.00;100193.28;3535453;40;20094;-64
2023/07/27 10:29:30;;;;;;;2.90;1.17;;;;;;;19.12;100.00;100196.34;3530752;40;20069;-63
2023/07/27 10:32:08;;;;;;;1.33;1.20;;;;;;;19.21;100.00;100189.06;3537799;40;20087;-64
2023/07/27 10:34:36;;;;;;;1.17;1.17;;;;;;;19.30;100.00;100190.78;3533368;40;20062;-64
2023/07/27 10:37:04;;;;;;;1.20;1.20;;;;;;;19.28;100.00;100194.69;3535016;40;20062;-64
2023/07/27 10:39:42;;;;;;;0.93;0.93;;;;;;;19.25;100.00;100196.75;3530048;40;20169;-64
2023/07/27 10:42:12;;;;;;;1.25;1.25;;;;;;;19.24;100.00;100192.28;3538544;40;20372;-64
2023/07/27 10:44:49;;;;;;;1.40;1.30;;;;;;;19.26;100.00;100197.59;3533229;40;20046;-64
2023/07/27 10:47:21;;;;;;;1.77;1.02;;;;;;;19.31;100.00;100188.91;3532856;40;20192;-64
2023/07/27 10:49:51;;;;;;;2.65;0.88;;;;;;;19.39;100.00;100197.09;3543963;40;20417;-64
2023/07/27 10:52:21;;;;;;;1.20;1.20;;;;;;;19.40;100.00;100196.06;3535985;40;20066;-64
2023/07/27 10:54:49;;;;;;;1.38;1.30;;;;;;;19.36;99.58;100195.56;3534777;40;20337;-65
2023/07/27 10:57:17;;;;;;;1.00;1.00;;;;;;;19.22;98.49;100183.44;3537505;40;20057;-64
2023/07/27 10:59:47;;;;;;;1.40;1.30;;;;;;;19.24;100.00;100189.56;3534724;40;20432;-64
2023/07/27 11:02:21;;;;;;;1.08;1.08;;;;;;;18.72;100.00;100120.78;3536186;40;20050;-64
2023/07/27 11:05:02;;;;;;;1.17;1.17;;;;;;;19.02;100.00;100171.13;3537553;40;20054;-64
2023/07/27 11:07:31;;;;;;;2.75;1.50;;;;;;;19.22;100.00;100197.06;3533978;40;20050;-64
2023/07/27 11:09:59;;;;;;;1.08;1.08;;;;;;;19.15;100.00;100185.13;3533878;40;20110;-64
2023/07/27 11:12:25;;;;;;;1.40;0.90;;;;;;;19.25;100.00;100191.28;3533876;40;20050;-64
2023/07/27 11:14:52;;;;;;;0.90;0.55;;;;;;;19.29;100.00;100180.06;3534090;40;20046;-64
2023/07/27 11:17:19;;;;;;;0.80;0.80;;;;;;;19.29;100.00;100180.91;3533597;40;20783;-64
2023/07/27 11:19:47;;;;;;;1.83;0.90;;;;;;;19.09;100.00;100134.00;3534660;40;20046;-64
2023/07/27 11:22:12;;;;;;;1.02;1.02;;;;;;;19.46;100.00;100181.78;3536376;40;20065;-64
2023/07/27 11:24:39;;;;;;;1.15;1.05;;;;;;;19.50;100.00;100174.97;3536977;40;20070;-64